Far Rockaway, NY

1:55 PM EST on December 27, 2014 (GMT -0500)
Sheepshead Bay | Change Station
CLOSE
Current Station
Personal Weather Station
Location: Brooklyn, NY
Elevation: 13 ft
Nearby Weather Stations

Elev 13 ft 40.60 °N, 73.95 °W | Updated 11 minutes ago

Partly Cloudy
Partly Cloudy
53.7 °F
Feels Like 53.7 °F
N
5.0
Wind Variable Wind from SSW
Gusts 8.0 mph

Today
High -- | Low -- °F
--% Chance of Precip.
Yesterday
High -- | Low -- °F
Precip. -- in
7:18 AM 4:35 PM
Waxing Crescent, 39% visible
Pressure 30.20 in
Visibility 10.0 miles
Clouds Few 20000 ft
Mostly Cloudy 30000 ft
Dew Point 33 °F
Humidity 45%
Rainfall 0.00 in
Snow Depth Not available.
UV 1 out of 12
Pollen .10 out of 12
Air Quality Not available.
Flu Activity Not available.
METAR KJFK 271851Z 21007KT 10SM FEW200 BKN300 12/02 A3020 RMK AO2 SLP227 T01170017

More Conditions Fewer Conditions

Pressure 30.20 in
Visibility 10.0 miles
Clouds Few 20000 ft
Mostly Cloudy 30000 ft
Dew Point 33 °F
Humidity 45%
Rainfall 0.00 in
Snow Depth Not available.
UV 1 out of 12
Pollen .10 out of 12
Air Quality Not available.
Flu Activity Not available.
METAR KJFK 271851Z 21007KT 10SM FEW200 BKN300 12/02 A3020 RMK AO2 SLP227 T01170017

More Conditions Fewer Conditions

10-Day Weather Forecast

Almanac

Astronomy

Dec. 27, 2014 Rise Set
Actual Time
Civil Twilight
Nautical Twilight
Astronomical Twilight
Moon
Length of Visible Light
Length of Day
Tomorrow will be .
, % of the Moon is Illuminated

Today's Extremes

State Highs State Lows

Community

WunderPhotos

Upload Photos

1,780,988 photos uploaded!

WunderBlogs® & News

Nearby

Air Quality

  Air Quality AQ Index Pollutant
Not available.

Snow Depth

Station Depth Elevation

Earthquake Activity

City Distance Mag. Time & Date
Minimum magnitude displayed is 2.5.

Coastal Water Temperatures

Place Temperature

Nearby Weather Stations